sensor_id;sensor_type;location;lat;lon;timestamp;P1;durP1;ratioP1;P2;durP2;ratioP2
801;SDS011;383;48.766;9.270;2022-07-22T00:02:04;11.57;;;7.50;;
801;SDS011;383;48.766;9.270;2022-07-22T00:04:31;12.23;;;8.10;;
801;SDS011;383;48.766;9.270;2022-07-22T00:06:59;12.10;;;7.60;;
801;SDS011;383;48.766;9.270;2022-07-22T00:09:26;10.17;;;7.60;;
801;SDS011;383;48.766;9.270;2022-07-22T00:11:52;10.10;;;7.57;;
801;SDS011;383;48.766;9.270;2022-07-22T00:14:20;14.43;;;9.13;;
801;SDS011;383;48.766;9.270;2022-07-22T00:16:46;11.40;;;8.23;;
801;SDS011;383;48.766;9.270;2022-07-22T00:19:13;9.67;;;7.40;;
801;SDS011;383;48.766;9.270;2022-07-22T00:21:40;12.03;;;7.90;;
801;SDS011;383;48.766;9.270;2022-07-22T00:24:08;10.73;;;8.20;;
801;SDS011;383;48.766;9.270;2022-07-22T00:26:34;12.33;;;8.20;;
801;SDS011;383;48.766;9.270;2022-07-22T00:29:01;12.50;;;9.07;;
801;SDS011;383;48.766;9.270;2022-07-22T00:31:28;13.30;;;7.70;;
801;SDS011;383;48.766;9.270;2022-07-22T00:33:55;14.13;;;8.33;;
801;SDS011;383;48.766;9.270;2022-07-22T00:36:22;15.03;;;8.50;;
801;SDS011;383;48.766;9.270;2022-07-22T00:38:49;13.30;;;8.00;;
801;SDS011;383;48.766;9.270;2022-07-22T00:41:17;12.53;;;8.20;;
801;SDS011;383;48.766;9.270;2022-07-22T00:43:51;13.40;;;9.30;;
801;SDS011;383;48.766;9.270;2022-07-22T00:46:19;12.50;;;8.03;;
801;SDS011;383;48.766;9.270;2022-07-22T00:48:46;12.20;;;8.07;;
801;SDS011;383;48.766;9.270;2022-07-22T00:51:13;13.63;;;9.00;;
801;SDS011;383;48.766;9.270;2022-07-22T00:53:40;12.57;;;8.23;;
801;SDS011;383;48.766;9.270;2022-07-22T00:56:07;14.80;;;8.77;;
801;SDS011;383;48.766;9.270;2022-07-22T00:58:35;12.80;;;7.90;;
801;SDS011;383;48.766;9.270;2022-07-22T01:01:02;15.30;;;8.27;;
801;SDS011;383;48.766;9.270;2022-07-22T01:03:29;13.33;;;8.77;;
801;SDS011;383;48.766;9.270;2022-07-22T01:05:56;13.17;;;8.00;;
801;SDS011;383;48.766;9.270;2022-07-22T01:08:23;12.70;;;7.93;;
801;SDS011;383;48.766;9.270;2022-07-22T01:10:50;12.33;;;9.43;;
801;SDS011;383;48.766;9.270;2022-07-22T01:13:16;12.80;;;8.80;;
801;SDS011;383;48.766;9.270;2022-07-22T01:15:44;13.93;;;9.77;;
801;SDS011;383;48.766;9.270;2022-07-22T01:18:11;10.83;;;7.90;;
801;SDS011;383;48.766;9.270;2022-07-22T01:20:39;13.40;;;8.40;;
801;SDS011;383;48.766;9.270;2022-07-22T01:23:07;10.37;;;8.03;;
801;SDS011;383;48.766;9.270;2022-07-22T01:25:34;13.60;;;8.63;;
801;SDS011;383;48.766;9.270;2022-07-22T01:28:00;16.97;;;9.27;;
801;SDS011;383;48.766;9.270;2022-07-22T01:30:27;23.50;;;9.90;;
801;SDS011;383;48.766;9.270;2022-07-22T01:32:54;17.97;;;9.33;;
801;SDS011;383;48.766;9.270;2022-07-22T01:35:21;14.30;;;9.10;;
801;SDS011;383;48.766;9.270;2022-07-22T01:37:49;13.40;;;9.00;;
801;SDS011;383;48.766;9.270;2022-07-22T01:40:15;12.30;;;8.80;;
801;SDS011;383;48.766;9.270;2022-07-22T01:42:42;13.53;;;9.00;;
801;SDS011;383;48.766;9.270;2022-07-22T01:45:09;13.63;;;8.83;;
801;SDS011;383;48.766;9.270;2022-07-22T01:47:36;18.43;;;8.77;;
801;SDS011;383;48.766;9.270;2022-07-22T01:50:03;15.43;;;8.90;;
801;SDS011;383;48.766;9.270;2022-07-22T01:52:31;11.10;;;8.13;;
801;SDS011;383;48.766;9.270;2022-07-22T01:54:59;13.20;;;8.33;;
801;SDS011;383;48.766;9.270;2022-07-22T01:57:25;12.90;;;8.50;;
801;SDS011;383;48.766;9.270;2022-07-22T01:59:52;13.97;;;8.97;;
801;SDS011;383;48.766;9.270;2022-07-22T02:02:19;18.00;;;9.33;;
801;SDS011;383;48.766;9.270;2022-07-22T02:04:45;13.80;;;9.00;;
801;SDS011;383;48.766;9.270;2022-07-22T02:07:12;18.57;;;9.57;;
801;SDS011;383;48.766;9.270;2022-07-22T02:09:39;14.47;;;9.00;;
801;SDS011;383;48.766;9.270;2022-07-22T02:12:07;16.17;;;9.27;;
801;SDS011;383;48.766;9.270;2022-07-22T02:14:34;14.27;;;9.43;;
801;SDS011;383;48.766;9.270;2022-07-22T02:17:01;18.10;;;10.20;;
801;SDS011;383;48.766;9.270;2022-07-22T02:19:28;16.13;;;9.97;;
801;SDS011;383;48.766;9.270;2022-07-22T02:21:54;19.93;;;12.10;;
801;SDS011;383;48.766;9.270;2022-07-22T02:24:21;13.63;;;9.50;;
801;SDS011;383;48.766;9.270;2022-07-22T02:26:48;14.60;;;9.70;;
801;SDS011;383;48.766;9.270;2022-07-22T02:29:16;14.53;;;9.50;;
801;SDS011;383;48.766;9.270;2022-07-22T02:31:42;16.00;;;10.77;;
801;SDS011;383;48.766;9.270;2022-07-22T02:34:09;21.57;;;11.33;;
801;SDS011;383;48.766;9.270;2022-07-22T02:36:36;14.80;;;9.23;;
801;SDS011;383;48.766;9.270;2022-07-22T02:39:03;15.70;;;10.10;;
801;SDS011;383;48.766;9.270;2022-07-22T02:41:30;16.93;;;9.37;;
801;SDS011;383;48.766;9.270;2022-07-22T02:43:56;19.37;;;10.93;;
801;SDS011;383;48.766;9.270;2022-07-22T02:46:25;18.10;;;11.40;;
801;SDS011;383;48.766;9.270;2022-07-22T02:48:53;19.70;;;10.70;;
801;SDS011;383;48.766;9.270;2022-07-22T02:51:20;18.20;;;10.60;;
801;SDS011;383;48.766;9.270;2022-07-22T02:53:46;17.00;;;9.30;;
801;SDS011;383;48.766;9.270;2022-07-22T02:56:13;18.17;;;10.87;;
801;SDS011;383;48.766;9.270;2022-07-22T02:58:40;19.80;;;11.10;;
801;SDS011;383;48.766;9.270;2022-07-22T03:01:07;15.80;;;10.60;;
801;SDS011;383;48.766;9.270;2022-07-22T03:03:35;17.00;;;10.93;;
801;SDS011;383;48.766;9.270;2022-07-22T03:06:02;20.27;;;11.13;;
801;SDS011;383;48.766;9.270;2022-07-22T03:08:28;25.03;;;11.90;;
801;SDS011;383;48.766;9.270;2022-07-22T03:10:55;15.87;;;10.80;;
801;SDS011;383;48.766;9.270;2022-07-22T03:13:22;15.00;;;10.30;;
801;SDS011;383;48.766;9.270;2022-07-22T03:15:48;15.77;;;10.90;;
801;SDS011;383;48.766;9.270;2022-07-22T03:18:15;15.63;;;10.73;;
801;SDS011;383;48.766;9.270;2022-07-22T03:20:43;14.60;;;9.33;;
801;SDS011;383;48.766;9.270;2022-07-22T03:23:10;18.57;;;11.43;;
801;SDS011;383;48.766;9.270;2022-07-22T03:25:37;28.37;;;12.83;;
801;SDS011;383;48.766;9.270;2022-07-22T03:28:04;18.40;;;11.47;;
801;SDS011;383;48.766;9.270;2022-07-22T03:30:30;16.40;;;10.97;;
801;SDS011;383;48.766;9.270;2022-07-22T03:32:57;18.87;;;12.00;;
801;SDS011;383;48.766;9.270;2022-07-22T03:35:24;16.60;;;11.13;;
801;SDS011;383;48.766;9.270;2022-07-22T03:37:52;16.63;;;10.93;;
801;SDS011;383;48.766;9.270;2022-07-22T03:40:19;16.97;;;11.17;;
801;SDS011;383;48.766;9.270;2022-07-22T03:42:45;23.83;;;11.53;;
801;SDS011;383;48.766;9.270;2022-07-22T03:45:13;17.47;;;11.27;;
801;SDS011;383;48.766;9.270;2022-07-22T03:47:39;20.13;;;11.80;;
801;SDS011;383;48.766;9.270;2022-07-22T03:50:07;18.60;;;11.50;;
801;SDS011;383;48.766;9.270;2022-07-22T03:52:34;18.60;;;11.10;;
801;SDS011;383;48.766;9.270;2022-07-22T03:55:02;20.23;;;12.43;;
801;SDS011;383;48.766;9.270;2022-07-22T03:57:29;18.73;;;11.63;;
801;SDS011;383;48.766;9.270;2022-07-22T03:59:55;34.43;;;11.37;;
801;SDS011;383;48.766;9.270;2022-07-22T04:02:22;17.20;;;10.37;;
801;SDS011;383;48.766;9.270;2022-07-22T04:04:49;18.83;;;12.20;;
801;SDS011;383;48.766;9.270;2022-07-22T04:07:15;18.90;;;12.20;;
801;SDS011;383;48.766;9.270;2022-07-22T04:09:42;18.90;;;11.93;;
801;SDS011;383;48.766;9.270;2022-07-22T04:12:10;19.27;;;13.30;;
801;SDS011;383;48.766;9.270;2022-07-22T04:14:37;20.13;;;12.10;;
801;SDS011;383;48.766;9.270;2022-07-22T04:17:04;19.47;;;12.60;;
801;SDS011;383;48.766;9.270;2022-07-22T04:19:30;18.53;;;11.77;;
801;SDS011;383;48.766;9.270;2022-07-22T04:21:57;22.83;;;12.63;;
801;SDS011;383;48.766;9.270;2022-07-22T04:24:24;16.97;;;11.33;;
801;SDS011;383;48.766;9.270;2022-07-22T04:26:51;16.57;;;11.80;;
801;SDS011;383;48.766;9.270;2022-07-22T04:29:19;19.53;;;11.77;;
801;SDS011;383;48.766;9.270;2022-07-22T04:31:45;19.70;;;11.37;;
801;SDS011;383;48.766;9.270;2022-07-22T04:34:12;15.97;;;10.90;;
801;SDS011;383;48.766;9.270;2022-07-22T04:36:39;15.83;;;10.63;;
801;SDS011;383;48.766;9.270;2022-07-22T04:39:05;20.97;;;12.43;;
801;SDS011;383;48.766;9.270;2022-07-22T04:41:32;23.93;;;12.73;;
801;SDS011;383;48.766;9.270;2022-07-22T04:43:58;20.10;;;12.27;;
801;SDS011;383;48.766;9.270;2022-07-22T04:46:26;25.33;;;13.00;;
801;SDS011;383;48.766;9.270;2022-07-22T04:48:53;17.00;;;10.93;;
801;SDS011;383;48.766;9.270;2022-07-22T04:51:20;25.40;;;11.93;;
801;SDS011;383;48.766;9.270;2022-07-22T04:53:47;17.60;;;11.33;;
801;SDS011;383;48.766;9.270;2022-07-22T04:56:13;19.20;;;12.53;;
801;SDS011;383;48.766;9.270;2022-07-22T04:58:40;25.50;;;13.40;;
801;SDS011;383;48.766;9.270;2022-07-22T05:01:07;18.40;;;13.10;;
801;SDS011;383;48.766;9.270;2022-07-22T05:03:35;19.00;;;12.13;;
801;SDS011;383;48.766;9.270;2022-07-22T05:06:03;23.50;;;12.73;;
801;SDS011;383;48.766;9.270;2022-07-22T05:08:30;18.93;;;11.90;;
801;SDS011;383;48.766;9.270;2022-07-22T05:10:57;21.80;;;12.33;;
801;SDS011;383;48.766;9.270;2022-07-22T05:13:23;19.67;;;12.23;;
801;SDS011;383;48.766;9.270;2022-07-22T05:15:50;19.77;;;12.40;;
801;SDS011;383;48.766;9.270;2022-07-22T05:18:17;24.63;;;13.13;;
801;SDS011;383;48.766;9.270;2022-07-22T05:20:45;23.93;;;14.30;;
801;SDS011;383;48.766;9.270;2022-07-22T05:23:12;25.10;;;13.67;;
801;SDS011;383;48.766;9.270;2022-07-22T05:25:38;28.73;;;15.53;;
801;SDS011;383;48.766;9.270;2022-07-22T05:28:05;23.40;;;14.60;;
801;SDS011;383;48.766;9.270;2022-07-22T05:30:32;26.53;;;15.57;;
801;SDS011;383;48.766;9.270;2022-07-22T05:32:58;22.70;;;14.00;;
801;SDS011;383;48.766;9.270;2022-07-22T05:35:25;31.37;;;15.30;;
801;SDS011;383;48.766;9.270;2022-07-22T05:37:53;24.10;;;15.00;;
801;SDS011;383;48.766;9.270;2022-07-22T05:40:21;22.40;;;14.00;;
801;SDS011;383;48.766;9.270;2022-07-22T05:42:47;22.67;;;13.50;;
801;SDS011;383;48.766;9.270;2022-07-22T05:45:14;23.07;;;14.80;;
801;SDS011;383;48.766;9.270;2022-07-22T05:47:41;22.23;;;14.97;;
801;SDS011;383;48.766;9.270;2022-07-22T05:50:08;21.07;;;13.43;;
801;SDS011;383;48.766;9.270;2022-07-22T05:52:35;29.57;;;14.17;;
801;SDS011;383;48.766;9.270;2022-07-22T05:55:05;23.80;;;13.43;;
801;SDS011;383;48.766;9.270;2022-07-22T05:57:32;22.43;;;14.17;;
801;SDS011;383;48.766;9.270;2022-07-22T05:59:58;22.87;;;13.97;;
801;SDS011;383;48.766;9.270;2022-07-22T06:02:25;26.63;;;14.33;;
801;SDS011;383;48.766;9.270;2022-07-22T06:04:53;22.73;;;13.33;;
801;SDS011;383;48.766;9.270;2022-07-22T06:07:20;23.33;;;14.20;;
801;SDS011;383;48.766;9.270;2022-07-22T06:09:47;21.93;;;14.10;;
801;SDS011;383;48.766;9.270;2022-07-22T06:12:15;19.23;;;13.00;;
801;SDS011;383;48.766;9.270;2022-07-22T06:14:42;24.97;;;15.50;;
801;SDS011;383;48.766;9.270;2022-07-22T06:17:08;25.53;;;13.80;;
801;SDS011;383;48.766;9.270;2022-07-22T06:19:35;24.83;;;14.53;;
801;SDS011;383;48.766;9.270;2022-07-22T06:22:02;24.63;;;13.87;;
801;SDS011;383;48.766;9.270;2022-07-22T06:24:29;21.37;;;14.63;;
801;SDS011;383;48.766;9.270;2022-07-22T06:26:55;21.03;;;14.77;;
801;SDS011;383;48.766;9.270;2022-07-22T06:29:23;20.10;;;13.87;;
801;SDS011;383;48.766;9.270;2022-07-22T06:31:50;22.57;;;14.70;;
801;SDS011;383;48.766;9.270;2022-07-22T06:34:17;28.87;;;13.50;;
801;SDS011;383;48.766;9.270;2022-07-22T06:36:43;23.20;;;14.43;;
801;SDS011;383;48.766;9.270;2022-07-22T06:39:10;23.23;;;15.17;;
801;SDS011;383;48.766;9.270;2022-07-22T06:41:37;21.13;;;14.03;;
801;SDS011;383;48.766;9.270;2022-07-22T06:44:03;24.33;;;14.03;;
801;SDS011;383;48.766;9.270;2022-07-22T06:46:32;23.30;;;14.00;;
801;SDS011;383;48.766;9.270;2022-07-22T06:48:58;20.60;;;12.93;;
801;SDS011;383;48.766;9.270;2022-07-22T06:51:25;23.23;;;14.37;;
801;SDS011;383;48.766;9.270;2022-07-22T06:53:52;21.60;;;13.77;;
801;SDS011;383;48.766;9.270;2022-07-22T06:56:18;20.10;;;13.53;;
801;SDS011;383;48.766;9.270;2022-07-22T06:58:45;19.63;;;13.33;;
801;SDS011;383;48.766;9.270;2022-07-22T07:01:12;26.33;;;11.77;;
801;SDS011;383;48.766;9.270;2022-07-22T07:03:40;20.03;;;13.63;;
801;SDS011;383;48.766;9.270;2022-07-22T07:06:07;20.47;;;12.50;;
801;SDS011;383;48.766;9.270;2022-07-22T07:08:36;20.37;;;12.23;;
801;SDS011;383;48.766;9.270;2022-07-22T07:11:03;21.13;;;11.37;;
801;SDS011;383;48.766;9.270;2022-07-22T07:13:30;22.70;;;12.37;;
801;SDS011;383;48.766;9.270;2022-07-22T07:15:57;21.73;;;12.87;;
801;SDS011;383;48.766;9.270;2022-07-22T07:18:24;19.87;;;12.53;;
801;SDS011;383;48.766;9.270;2022-07-22T07:20:52;18.30;;;11.73;;
801;SDS011;383;48.766;9.270;2022-07-22T07:23:19;20.47;;;12.20;;
801;SDS011;383;48.766;9.270;2022-07-22T07:25:45;25.67;;;11.60;;
801;SDS011;383;48.766;9.270;2022-07-22T07:28:12;28.70;;;14.07;;
801;SDS011;383;48.766;9.270;2022-07-22T07:30:39;21.90;;;12.60;;
801;SDS011;383;48.766;9.270;2022-07-22T07:33:05;23.77;;;12.93;;
801;SDS011;383;48.766;9.270;2022-07-22T07:35:32;19.83;;;13.10;;
801;SDS011;383;48.766;9.270;2022-07-22T07:38:00;16.43;;;11.80;;
801;SDS011;383;48.766;9.270;2022-07-22T07:40:27;27.13;;;14.17;;
801;SDS011;383;48.766;9.270;2022-07-22T07:42:54;16.63;;;12.17;;
801;SDS011;383;48.766;9.270;2022-07-22T07:45:20;15.60;;;12.10;;
801;SDS011;383;48.766;9.270;2022-07-22T07:47:47;18.77;;;12.00;;
801;SDS011;383;48.766;9.270;2022-07-22T07:50:14;20.10;;;11.70;;
801;SDS011;383;48.766;9.270;2022-07-22T07:52:41;17.10;;;11.17;;
801;SDS011;383;48.766;9.270;2022-07-22T07:55:13;17.27;;;10.80;;
801;SDS011;383;48.766;9.270;2022-07-22T07:57:40;15.50;;;10.27;;
801;SDS011;383;48.766;9.270;2022-07-22T08:00:09;19.90;;;11.13;;
801;SDS011;383;48.766;9.270;2022-07-22T08:02:37;15.93;;;10.43;;
801;SDS011;383;48.766;9.270;2022-07-22T08:05:05;18.37;;;11.57;;
801;SDS011;383;48.766;9.270;2022-07-22T08:07:33;15.43;;;11.07;;
801;SDS011;383;48.766;9.270;2022-07-22T08:10:00;20.73;;;10.83;;
801;SDS011;383;48.766;9.270;2022-07-22T08:12:28;19.43;;;11.10;;
801;SDS011;383;48.766;9.270;2022-07-22T08:14:55;23.77;;;11.30;;
801;SDS011;383;48.766;9.270;2022-07-22T08:17:21;20.07;;;12.00;;
801;SDS011;383;48.766;9.270;2022-07-22T08:19:48;18.87;;;11.10;;
801;SDS011;383;48.766;9.270;2022-07-22T08:22:15;17.90;;;11.73;;
801;SDS011;383;48.766;9.270;2022-07-22T08:24:42;16.40;;;11.63;;
801;SDS011;383;48.766;9.270;2022-07-22T08:27:09;19.50;;;12.57;;
801;SDS011;383;48.766;9.270;2022-07-22T08:29:37;17.13;;;11.37;;
801;SDS011;383;48.766;9.270;2022-07-22T08:32:04;20.47;;;12.37;;
801;SDS011;383;48.766;9.270;2022-07-22T08:34:31;17.93;;;11.90;;
801;SDS011;383;48.766;9.270;2022-07-22T08:36:57;21.73;;;11.63;;
801;SDS011;383;48.766;9.270;2022-07-22T08:39:24;21.10;;;13.43;;
801;SDS011;383;48.766;9.270;2022-07-22T08:41:51;23.10;;;12.13;;
801;SDS011;383;48.766;9.270;2022-07-22T08:44:18;19.50;;;11.70;;
801;SDS011;383;48.766;9.270;2022-07-22T08:46:46;17.10;;;11.10;;
801;SDS011;383;48.766;9.270;2022-07-22T08:49:13;24.53;;;11.83;;
801;SDS011;383;48.766;9.270;2022-07-22T08:51:40;17.90;;;11.73;;
801;SDS011;383;48.766;9.270;2022-07-22T08:54:07;22.10;;;12.07;;
801;SDS011;383;48.766;9.270;2022-07-22T08:56:34;14.50;;;10.70;;
801;SDS011;383;48.766;9.270;2022-07-22T08:59:03;24.10;;;10.70;;
801;SDS011;383;48.766;9.270;2022-07-22T09:01:29;16.67;;;10.50;;
801;SDS011;383;48.766;9.270;2022-07-22T09:03:57;23.37;;;11.73;;
801;SDS011;383;48.766;9.270;2022-07-22T09:06:25;21.23;;;10.87;;
801;SDS011;383;48.766;9.270;2022-07-22T09:08:58;23.93;;;11.73;;
801;SDS011;383;48.766;9.270;2022-07-22T09:11:29;18.43;;;11.17;;
801;SDS011;383;48.766;9.270;2022-07-22T09:13:57;22.43;;;10.47;;
801;SDS011;383;48.766;9.270;2022-07-22T09:16:38;16.33;;;10.43;;
801;SDS011;383;48.766;9.270;2022-07-22T09:19:08;18.77;;;11.80;;
801;SDS011;383;48.766;9.270;2022-07-22T09:21:35;19.63;;;13.60;;
801;SDS011;383;48.766;9.270;2022-07-22T09:24:03;14.33;;;10.37;;
801;SDS011;383;48.766;9.270;2022-07-22T09:26:31;19.53;;;10.70;;
801;SDS011;383;48.766;9.270;2022-07-22T09:28:59;17.90;;;11.43;;
801;SDS011;383;48.766;9.270;2022-07-22T09:31:26;18.10;;;10.13;;
801;SDS011;383;48.766;9.270;2022-07-22T09:33:56;16.20;;;10.37;;
801;SDS011;383;48.766;9.270;2022-07-22T09:36:25;23.17;;;12.17;;
801;SDS011;383;48.766;9.270;2022-07-22T09:38:51;18.20;;;9.87;;
801;SDS011;383;48.766;9.270;2022-07-22T09:41:19;17.23;;;10.07;;
801;SDS011;383;48.766;9.270;2022-07-22T09:43:46;20.33;;;11.20;;
801;SDS011;383;48.766;9.270;2022-07-22T09:46:14;18.27;;;10.80;;
801;SDS011;383;48.766;9.270;2022-07-22T09:48:41;16.73;;;10.17;;
801;SDS011;383;48.766;9.270;2022-07-22T09:51:08;16.07;;;9.83;;
801;SDS011;383;48.766;9.270;2022-07-22T09:53:36;13.37;;;9.17;;
801;SDS011;383;48.766;9.270;2022-07-22T09:56:03;12.40;;;8.60;;
801;SDS011;383;48.766;9.270;2022-07-22T09:58:31;10.40;;;8.70;;
801;SDS011;383;48.766;9.270;2022-07-22T10:01:00;14.00;;;9.70;;
801;SDS011;383;48.766;9.270;2022-07-22T10:03:30;12.43;;;9.23;;
801;SDS011;383;48.766;9.270;2022-07-22T10:05:58;11.60;;;9.20;;
801;SDS011;383;48.766;9.270;2022-07-22T10:08:27;14.30;;;9.33;;
801;SDS011;383;48.766;9.270;2022-07-22T10:10:58;13.60;;;9.47;;
801;SDS011;383;48.766;9.270;2022-07-22T10:13:26;23.10;;;10.97;;
801;SDS011;383;48.766;9.270;2022-07-22T10:15:52;10.70;;;8.70;;
801;SDS011;383;48.766;9.270;2022-07-22T10:18:21;11.60;;;8.67;;
801;SDS011;383;48.766;9.270;2022-07-22T10:20:48;12.17;;;8.57;;
801;SDS011;383;48.766;9.270;2022-07-22T10:23:25;12.10;;;9.00;;
801;SDS011;383;48.766;9.270;2022-07-22T10:25:53;17.43;;;8.20;;
801;SDS011;383;48.766;9.270;2022-07-22T10:28:24;14.43;;;8.20;;
801;SDS011;383;48.766;9.270;2022-07-22T10:30:52;11.90;;;9.17;;
801;SDS011;383;48.766;9.270;2022-07-22T10:33:19;10.40;;;8.57;;
801;SDS011;383;48.766;9.270;2022-07-22T10:35:54;12.70;;;9.50;;
801;SDS011;383;48.766;9.270;2022-07-22T10:38:24;12.50;;;9.60;;
801;SDS011;383;48.766;9.270;2022-07-22T10:40:52;15.50;;;9.47;;
801;SDS011;383;48.766;9.270;2022-07-22T10:43:21;23.60;;;8.93;;
801;SDS011;383;48.766;9.270;2022-07-22T10:45:51;10.13;;;8.10;;
801;SDS011;383;48.766;9.270;2022-07-22T10:48:20;13.80;;;9.27;;
801;SDS011;383;48.766;9.270;2022-07-22T10:53:41;11.93;;;8.47;;
801;SDS011;383;48.766;9.270;2022-07-22T10:56:14;11.37;;;8.50;;
801;SDS011;383;48.766;9.270;2022-07-22T10:58:48;26.07;;;12.87;;
801;SDS011;383;48.766;9.270;2022-07-22T11:01:17;12.20;;;8.70;;
801;SDS011;383;48.766;9.270;2022-07-22T11:03:45;13.77;;;9.13;;
801;SDS011;383;48.766;9.270;2022-07-22T11:06:14;12.00;;;8.47;;
801;SDS011;383;48.766;9.270;2022-07-22T11:08:43;12.13;;;8.80;;
801;SDS011;383;48.766;9.270;2022-07-22T11:11:10;12.40;;;8.20;;
801;SDS011;383;48.766;9.270;2022-07-22T11:13:38;12.20;;;8.73;;
801;SDS011;383;48.766;9.270;2022-07-22T11:16:17;10.70;;;8.87;;
801;SDS011;383;48.766;9.270;2022-07-22T11:18:46;13.47;;;8.60;;
801;SDS011;383;48.766;9.270;2022-07-22T11:21:14;11.83;;;8.67;;
801;SDS011;383;48.766;9.270;2022-07-22T11:23:42;13.23;;;8.87;;
801;SDS011;383;48.766;9.270;2022-07-22T11:26:10;12.27;;;7.77;;
801;SDS011;383;48.766;9.270;2022-07-22T11:28:40;11.47;;;8.33;;
801;SDS011;383;48.766;9.270;2022-07-22T11:31:07;12.77;;;9.20;;
801;SDS011;383;48.766;9.270;2022-07-22T11:33:36;12.77;;;8.40;;
801;SDS011;383;48.766;9.270;2022-07-22T11:36:03;12.60;;;9.10;;
801;SDS011;383;48.766;9.270;2022-07-22T11:38:44;12.13;;;8.03;;
801;SDS011;383;48.766;9.270;2022-07-22T11:41:13;13.77;;;8.40;;
801;SDS011;383;48.766;9.270;2022-07-22T11:43:41;10.27;;;8.10;;
801;SDS011;383;48.766;9.270;2022-07-22T11:46:09;10.73;;;8.10;;
801;SDS011;383;48.766;9.270;2022-07-22T11:48:38;13.50;;;8.20;;
801;SDS011;383;48.766;9.270;2022-07-22T11:51:05;9.20;;;7.60;;
801;SDS011;383;48.766;9.270;2022-07-22T11:53:33;11.33;;;8.10;;
801;SDS011;383;48.766;9.270;2022-07-22T11:56:01;10.80;;;7.70;;
801;SDS011;383;48.766;9.270;2022-07-22T11:58:36;15.40;;;8.80;;
801;SDS011;383;48.766;9.270;2022-07-22T12:01:04;15.40;;;10.07;;
801;SDS011;383;48.766;9.270;2022-07-22T12:03:32;10.03;;;8.37;;
801;SDS011;383;48.766;9.270;2022-07-22T12:06:02;11.03;;;8.77;;
801;SDS011;383;48.766;9.270;2022-07-22T12:08:31;14.33;;;9.97;;
801;SDS011;383;48.766;9.270;2022-07-22T12:10:59;9.10;;;6.67;;
801;SDS011;383;48.766;9.270;2022-07-22T12:13:29;8.73;;;7.17;;
801;SDS011;383;48.766;9.270;2022-07-22T12:15:56;9.60;;;7.40;;
801;SDS011;383;48.766;9.270;2022-07-22T12:18:25;8.57;;;6.70;;
801;SDS011;383;48.766;9.270;2022-07-22T12:20:54;9.07;;;7.77;;
801;SDS011;383;48.766;9.270;2022-07-22T12:23:24;8.53;;;7.60;;
801;SDS011;383;48.766;9.270;2022-07-22T12:25:52;9.90;;;7.67;;
801;SDS011;383;48.766;9.270;2022-07-22T12:28:20;10.03;;;8.10;;
801;SDS011;383;48.766;9.270;2022-07-22T12:30:47;12.43;;;8.00;;
801;SDS011;383;48.766;9.270;2022-07-22T12:33:16;9.07;;;6.90;;
801;SDS011;383;48.766;9.270;2022-07-22T12:35:43;9.03;;;7.23;;
801;SDS011;383;48.766;9.270;2022-07-22T12:38:24;10.40;;;7.30;;
801;SDS011;383;48.766;9.270;2022-07-22T12:40:51;9.27;;;7.50;;
801;SDS011;383;48.766;9.270;2022-07-22T12:43:21;17.07;;;7.50;;
801;SDS011;383;48.766;9.270;2022-07-22T12:45:51;9.70;;;7.20;;
801;SDS011;383;48.766;9.270;2022-07-22T12:48:18;8.90;;;7.50;;
801;SDS011;383;48.766;9.270;2022-07-22T12:50:53;11.07;;;7.90;;
801;SDS011;383;48.766;9.270;2022-07-22T12:53:22;9.83;;;6.67;;
801;SDS011;383;48.766;9.270;2022-07-22T12:55:52;10.20;;;7.27;;
801;SDS011;383;48.766;9.270;2022-07-22T12:58:21;8.70;;;7.27;;
801;SDS011;383;48.766;9.270;2022-07-22T13:00:50;22.30;;;13.97;;
801;SDS011;383;48.766;9.270;2022-07-22T13:03:19;8.50;;;6.70;;
801;SDS011;383;48.766;9.270;2022-07-22T13:05:47;9.07;;;7.00;;
801;SDS011;383;48.766;9.270;2022-07-22T13:08:14;9.83;;;7.23;;
801;SDS011;383;48.766;9.270;2022-07-22T13:10:41;10.77;;;7.60;;
801;SDS011;383;48.766;9.270;2022-07-22T13:13:09;8.83;;;7.90;;
801;SDS011;383;48.766;9.270;2022-07-22T13:15:36;9.17;;;7.03;;
801;SDS011;383;48.766;9.270;2022-07-22T13:18:04;14.80;;;7.87;;
801;SDS011;383;48.766;9.270;2022-07-22T13:20:31;11.47;;;6.90;;
801;SDS011;383;48.766;9.270;2022-07-22T13:22:58;9.57;;;7.00;;
801;SDS011;383;48.766;9.270;2022-07-22T13:25:25;10.57;;;7.20;;
801;SDS011;383;48.766;9.270;2022-07-22T13:27:52;12.20;;;7.50;;
801;SDS011;383;48.766;9.270;2022-07-22T13:30:20;8.27;;;6.13;;
801;SDS011;383;48.766;9.270;2022-07-22T13:32:47;5.90;;;5.60;;
801;SDS011;383;48.766;9.270;2022-07-22T13:35:14;11.13;;;7.00;;
801;SDS011;383;48.766;9.270;2022-07-22T13:37:41;17.50;;;6.57;;
801;SDS011;383;48.766;9.270;2022-07-22T13:40:09;8.37;;;7.07;;
801;SDS011;383;48.766;9.270;2022-07-22T13:42:36;7.97;;;6.37;;
801;SDS011;383;48.766;9.270;2022-07-22T13:45:03;7.90;;;5.70;;
801;SDS011;383;48.766;9.270;2022-07-22T13:47:32;7.13;;;6.20;;
801;SDS011;383;48.766;9.270;2022-07-22T13:49:59;6.97;;;5.60;;
801;SDS011;383;48.766;9.270;2022-07-22T13:52:26;6.43;;;5.10;;
801;SDS011;383;48.766;9.270;2022-07-22T13:54:53;7.23;;;6.03;;
801;SDS011;383;48.766;9.270;2022-07-22T13:57:19;9.07;;;5.70;;
801;SDS011;383;48.766;9.270;2022-07-22T13:59:46;7.00;;;5.70;;
801;SDS011;383;48.766;9.270;2022-07-22T14:02:13;9.40;;;5.80;;
801;SDS011;383;48.766;9.270;2022-07-22T14:04:42;10.10;;;5.60;;
801;SDS011;383;48.766;9.270;2022-07-22T14:07:08;7.33;;;5.87;;
801;SDS011;383;48.766;9.270;2022-07-22T14:09:35;6.50;;;5.60;;
801;SDS011;383;48.766;9.270;2022-07-22T14:12:02;7.43;;;5.73;;
801;SDS011;383;48.766;9.270;2022-07-22T14:14:29;6.97;;;5.70;;
801;SDS011;383;48.766;9.270;2022-07-22T14:16:56;10.87;;;6.70;;
801;SDS011;383;48.766;9.270;2022-07-22T14:19:23;7.03;;;5.80;;
801;SDS011;383;48.766;9.270;2022-07-22T14:21:51;7.17;;;6.30;;
801;SDS011;383;48.766;9.270;2022-07-22T14:24:18;9.50;;;5.63;;
801;SDS011;383;48.766;9.270;2022-07-22T14:26:45;13.47;;;7.23;;
801;SDS011;383;48.766;9.270;2022-07-22T14:29:12;6.40;;;5.73;;
801;SDS011;383;48.766;9.270;2022-07-22T14:31:38;7.43;;;6.20;;
801;SDS011;383;48.766;9.270;2022-07-22T14:34:05;8.00;;;6.00;;
801;SDS011;383;48.766;9.270;2022-07-22T14:36:32;6.97;;;5.77;;
801;SDS011;383;48.766;9.270;2022-07-22T14:39:00;9.43;;;6.43;;
801;SDS011;383;48.766;9.270;2022-07-22T14:41:26;7.90;;;5.87;;
801;SDS011;383;48.766;9.270;2022-07-22T14:43:53;8.13;;;7.10;;
801;SDS011;383;48.766;9.270;2022-07-22T14:46:20;10.53;;;6.10;;
801;SDS011;383;48.766;9.270;2022-07-22T14:48:46;11.70;;;6.50;;
801;SDS011;383;48.766;9.270;2022-07-22T14:51:17;6.83;;;6.20;;
801;SDS011;383;48.766;9.270;2022-07-22T14:53:44;14.03;;;6.70;;
801;SDS011;383;48.766;9.270;2022-07-22T14:56:12;11.60;;;6.37;;
801;SDS011;383;48.766;9.270;2022-07-22T14:58:39;6.67;;;6.00;;
801;SDS011;383;48.766;9.270;2022-07-22T15:01:06;8.60;;;6.57;;
801;SDS011;383;48.766;9.270;2022-07-22T15:03:32;7.03;;;6.03;;
801;SDS011;383;48.766;9.270;2022-07-22T15:05:59;8.13;;;6.60;;
801;SDS011;383;48.766;9.270;2022-07-22T15:08:26;7.50;;;6.90;;
801;SDS011;383;48.766;9.270;2022-07-22T15:10:52;7.50;;;5.80;;
801;SDS011;383;48.766;9.270;2022-07-22T15:13:20;12.43;;;6.77;;
801;SDS011;383;48.766;9.270;2022-07-22T15:15:47;6.70;;;5.43;;
801;SDS011;383;48.766;9.270;2022-07-22T15:18:14;7.93;;;5.97;;
801;SDS011;383;48.766;9.270;2022-07-22T15:20:40;9.23;;;5.93;;
801;SDS011;383;48.766;9.270;2022-07-22T15:23:07;12.10;;;7.60;;
801;SDS011;383;48.766;9.270;2022-07-22T15:25:34;6.93;;;5.43;;
801;SDS011;383;48.766;9.270;2022-07-22T15:28:02;8.50;;;6.30;;
801;SDS011;383;48.766;9.270;2022-07-22T15:30:32;10.40;;;6.60;;